createdAt,value
2023-01-07T00:00:15.534Z,11.20
2023-01-07T00:03:05.013Z,11.55
2023-01-07T00:05:34.907Z,11.80
2023-01-07T00:08:04.547Z,10.40
2023-01-07T00:10:34.973Z,10.00
2023-01-07T00:13:04.293Z,11.23
2023-01-07T00:15:34.110Z,11.25
2023-01-07T00:18:03.413Z,10.70
2023-01-07T00:20:32.827Z,10.55
2023-01-07T00:23:02.243Z,10.25
2023-01-07T00:25:31.525Z,10.00
2023-01-07T00:28:01.715Z,10.10
2023-01-07T00:30:31.043Z,9.45
2023-01-07T00:33:04.463Z,9.17
2023-01-07T00:35:36.353Z,9.67
2023-01-07T00:38:05.929Z,10.05
2023-01-07T00:40:36.623Z,9.95
2023-01-07T00:43:06.419Z,9.13
2023-01-07T00:45:36.875Z,9.87
2023-01-07T00:48:06.651Z,8.93
2023-01-07T00:50:36.611Z,8.25
2023-01-07T00:53:05.947Z,8.83
2023-01-07T00:55:35.411Z,8.30
2023-01-07T00:58:04.884Z,8.40
2023-01-07T01:00:34.462Z,7.77
2023-01-07T01:03:03.857Z,8.20
2023-01-07T01:05:33.882Z,8.70
2023-01-07T01:08:03.421Z,8.30
2023-01-07T01:10:33.119Z,8.37
2023-01-07T01:13:02.349Z,8.53
2023-01-07T01:15:31.717Z,8.13
2023-01-07T01:18:01.000Z,7.80
2023-01-07T01:20:30.267Z,8.07
2023-01-07T01:22:59.949Z,8.10
2023-01-07T01:25:29.235Z,8.10
2023-01-07T01:27:58.781Z,7.45
2023-01-07T01:30:28.217Z,8.17
2023-01-07T01:32:58.351Z,7.40
2023-01-07T01:35:27.833Z,7.00
2023-01-07T01:37:59.567Z,7.40
2023-01-07T01:40:29.467Z,6.63
2023-01-07T01:42:58.801Z,6.90
2023-01-07T01:45:29.792Z,7.35
2023-01-07T01:48:02.520Z,7.50
2023-01-07T01:50:34.725Z,7.50
2023-01-07T01:53:07.249Z,7.78
2023-01-07T01:55:38.485Z,7.20
2023-01-07T01:58:11.530Z,8.23
2023-01-07T02:00:41.576Z,7.25
2023-01-07T02:03:12.809Z,7.80
2023-01-07T02:05:42.539Z,7.57
2023-01-07T02:08:12.510Z,7.75
2023-01-07T02:10:42.697Z,7.95
2023-01-07T02:13:17.467Z,7.65
2023-01-07T02:15:50.011Z,7.73
2023-01-07T02:18:26.900Z,7.10
2023-01-07T02:21:00.884Z,7.15
2023-01-07T02:23:47.930Z,7.55
2023-01-07T02:26:34.587Z,7.57
2023-01-07T02:29:21.889Z,8.00
2023-01-07T02:32:18.101Z,7.65
2023-01-07T02:34:54.240Z,7.30
2023-01-07T02:37:29.581Z,7.55
2023-01-07T02:40:01.179Z,7.70
2023-01-07T02:42:36.613Z,7.55
2023-01-07T02:45:11.518Z,8.00
2023-01-07T02:47:43.341Z,7.75
2023-01-07T02:50:12.753Z,7.67
2023-01-07T02:52:42.064Z,7.40
2023-01-07T02:55:13.553Z,7.60
2023-01-07T02:58:00.370Z,8.08
2023-01-07T03:00:38.684Z,7.80
2023-01-07T03:03:14.889Z,7.60
2023-01-07T03:05:51.965Z,7.55
2023-01-07T03:08:29.833Z,7.75
2023-01-07T03:11:00.498Z,7.75
2023-01-07T03:13:32.188Z,7.60
2023-01-07T03:16:06.366Z,8.03
2023-01-07T03:18:38.637Z,8.20
2023-01-07T03:21:11.685Z,8.25
2023-01-07T03:23:42.717Z,9.00
2023-01-07T03:26:12.507Z,8.50
2023-01-07T03:28:42.743Z,7.80
2023-01-07T03:31:13.850Z,8.43
2023-01-07T03:33:45.854Z,8.77
2023-01-07T03:36:16.857Z,7.70
2023-01-07T03:38:47.017Z,8.80
2023-01-07T03:41:30.785Z,8.17
2023-01-07T03:44:00.273Z,8.75
2023-01-07T03:46:29.585Z,8.70
2023-01-07T03:48:59.475Z,9.35
2023-01-07T03:51:29.428Z,8.10
2023-01-07T03:53:58.722Z,8.95
2023-01-07T03:56:28.886Z,8.80
2023-01-07T03:58:58.248Z,8.95
2023-01-07T04:01:27.813Z,8.90
2023-01-07T04:03:57.406Z,8.80
2023-01-07T04:06:26.765Z,8.50
2023-01-07T04:08:56.301Z,9.10
2023-01-07T04:11:25.715Z,8.23
2023-01-07T04:13:56.627Z,8.27
2023-01-07T04:16:26.336Z,8.45
2023-01-07T04:18:56.859Z,8.65
2023-01-07T04:21:26.112Z,9.65
2023-01-07T04:23:55.511Z,8.95
2023-01-07T04:26:24.785Z,8.93
2023-01-07T04:28:54.130Z,9.35
2023-01-07T04:31:23.958Z,8.43
2023-01-07T04:33:53.561Z,8.85
2023-01-07T04:36:22.848Z,8.25
2023-01-07T04:38:52.303Z,10.05
2023-01-07T04:41:22.534Z,9.70
2023-01-07T04:43:52.308Z,9.95
2023-01-07T04:46:21.719Z,10.60
2023-01-07T04:48:51.086Z,10.20
2023-01-07T04:51:20.680Z,10.75
2023-01-07T04:53:49.946Z,10.73
2023-01-07T04:56:19.613Z,10.90
2023-01-07T04:58:49.557Z,10.85
2023-01-07T05:01:19.497Z,10.25
2023-01-07T05:03:49.869Z,10.45
2023-01-07T05:06:19.189Z,9.93
2023-01-07T05:08:50.483Z,10.07
2023-01-07T05:11:21.098Z,10.85
2023-01-07T05:13:50.743Z,10.60
2023-01-07T05:16:20.354Z,10.50
2023-01-07T05:18:49.739Z,10.50
2023-01-07T05:21:19.075Z,10.57
2023-01-07T05:23:48.377Z,9.55
2023-01-07T05:26:17.706Z,10.10
2023-01-07T05:28:47.142Z,9.90
2023-01-07T05:31:16.901Z,10.40
2023-01-07T05:33:46.546Z,10.40
2023-01-07T05:36:16.136Z,10.55
2023-01-07T05:38:46.318Z,10.30
2023-01-07T05:41:15.696Z,10.95
2023-01-07T05:43:45.285Z,10.70
2023-01-07T05:46:14.599Z,10.45
2023-01-07T05:48:43.834Z,11.40
2023-01-07T05:51:13.247Z,11.75
2023-01-07T05:53:42.551Z,10.65
2023-01-07T05:56:11.891Z,12.00
2023-01-07T05:58:41.464Z,13.25
2023-01-07T06:01:10.794Z,12.15
2023-01-07T06:03:40.301Z,13.30
2023-01-07T06:06:10.492Z,13.60
2023-01-07T06:08:40.406Z,15.20
2023-01-07T06:11:09.697Z,14.93
2023-01-07T06:13:39.263Z,13.35
2023-01-07T06:16:09.236Z,14.10
2023-01-07T06:18:38.868Z,13.80
2023-01-07T06:21:08.118Z,14.50
2023-01-07T06:23:37.510Z,14.65
2023-01-07T06:26:06.742Z,13.80
2023-01-07T06:28:36.105Z,15.55
2023-01-07T06:31:05.634Z,14.20
2023-01-07T06:33:37.300Z,14.40
2023-01-07T06:36:07.450Z,16.12
2023-01-07T06:38:36.789Z,15.50
2023-01-07T06:41:06.257Z,17.30
2023-01-07T06:43:35.625Z,17.15
2023-01-07T06:46:05.403Z,15.55
2023-01-07T06:48:34.732Z,15.93
2023-01-07T06:51:04.274Z,16.45
2023-01-07T06:53:33.865Z,16.20
2023-01-07T06:56:03.676Z,16.40
2023-01-07T06:58:33.172Z,16.95
2023-01-07T07:01:04.459Z,16.20
2023-01-07T07:03:34.151Z,22.37
2023-01-07T07:06:04.228Z,15.70
2023-01-07T07:08:33.673Z,14.90
2023-01-07T07:11:02.936Z,13.95
2023-01-07T07:13:32.127Z,14.00
2023-01-07T07:16:01.485Z,13.60
2023-01-07T07:18:30.880Z,13.85
2023-01-07T07:21:00.174Z,13.20
2023-01-07T07:23:29.456Z,13.70
2023-01-07T07:25:59.338Z,14.17
2023-01-07T07:28:28.641Z,13.97
2023-01-07T07:30:58.288Z,13.70
2023-01-07T07:33:28.167Z,14.53
2023-01-07T07:35:58.093Z,15.60
2023-01-07T07:38:27.439Z,14.80
2023-01-07T07:40:57.160Z,14.10
2023-01-07T07:43:26.976Z,14.65
2023-01-07T07:45:57.348Z,14.30
2023-01-07T07:48:26.818Z,14.40
2023-01-07T07:50:56.907Z,13.35
2023-01-07T07:53:26.394Z,12.80
2023-01-07T07:55:56.560Z,12.30
2023-01-07T07:58:25.859Z,11.77
2023-01-07T08:00:55.202Z,10.63
2023-01-07T08:03:24.788Z,11.50
2023-01-07T08:05:54.181Z,11.35
2023-01-07T08:08:23.521Z,11.75
2023-01-07T08:10:55.189Z,10.60
2023-01-07T08:13:25.263Z,11.53
2023-01-07T08:15:55.096Z,10.53
2023-01-07T08:18:25.043Z,9.67
2023-01-07T08:20:55.256Z,9.90
2023-01-07T08:23:27.374Z,10.40
2023-01-07T08:26:00.383Z,10.30
2023-01-07T08:28:30.551Z,10.10
2023-01-07T08:31:02.489Z,9.55
2023-01-07T08:33:36.736Z,8.68
2023-01-07T08:36:18.048Z,8.75
2023-01-07T08:38:52.052Z,7.55
2023-01-07T08:41:22.253Z,7.17
2023-01-07T08:43:51.767Z,6.55
2023-01-07T08:46:21.218Z,6.75
2023-01-07T08:48:51.030Z,8.60
2023-01-07T08:51:20.401Z,19.50
2023-01-07T08:53:49.631Z,12.15
2023-01-07T08:56:19.157Z,10.85
2023-01-07T08:58:49.361Z,10.45
2023-01-07T09:01:18.956Z,9.95
2023-01-07T09:03:48.336Z,10.60
2023-01-07T09:06:17.739Z,10.23
2023-01-07T09:08:47.089Z,9.60
2023-01-07T09:11:16.710Z,8.65
2023-01-07T09:13:46.166Z,8.90
2023-01-07T09:16:15.375Z,8.50
2023-01-07T09:18:46.203Z,7.87
2023-01-07T09:21:15.540Z,6.70
2023-01-07T09:23:44.913Z,7.20
2023-01-07T09:26:14.134Z,8.00
2023-01-07T09:28:43.874Z,9.00
2023-01-07T09:31:13.545Z,8.80
2023-01-07T09:33:43.323Z,7.00
2023-01-07T09:36:12.714Z,6.97
2023-01-07T09:38:42.161Z,8.97
2023-01-07T09:41:23.490Z,9.70
2023-01-07T09:44:00.176Z,9.70
2023-01-07T09:46:31.330Z,9.97
2023-01-07T09:49:02.135Z,9.00
2023-01-07T09:51:33.480Z,7.23
2023-01-07T09:54:04.131Z,7.05
2023-01-07T09:56:34.689Z,6.73
2023-01-07T09:59:05.015Z,6.90
2023-01-07T10:01:37.809Z,6.62
2023-01-07T10:04:15.599Z,7.35
2023-01-07T10:06:47.064Z,6.87
2023-01-07T10:09:21.395Z,7.15
2023-01-07T10:11:57.074Z,7.65
2023-01-07T10:14:43.758Z,8.50
2023-01-07T10:17:21.411Z,8.05
2023-01-07T10:19:55.561Z,8.10
2023-01-07T10:22:29.159Z,8.58
2023-01-07T10:25:00.645Z,9.65
2023-01-07T10:27:31.277Z,10.58
2023-01-07T10:30:02.785Z,10.43
2023-01-07T10:32:33.603Z,9.30
2023-01-07T10:35:03.853Z,9.03
2023-01-07T10:37:34.943Z,9.55
2023-01-07T10:40:17.209Z,8.80
2023-01-07T10:42:49.486Z,9.55
2023-01-07T10:45:37.253Z,8.90
2023-01-07T10:48:11.901Z,8.75
2023-01-07T10:50:48.851Z,8.13
2023-01-07T10:53:24.151Z,22.85
2023-01-07T10:55:57.061Z,14.00
2023-01-07T10:58:27.846Z,17.17
2023-01-07T11:00:57.772Z,10.40
2023-01-07T11:03:28.184Z,10.05
2023-01-07T11:05:59.779Z,14.53
2023-01-07T11:08:32.652Z,10.88
2023-01-07T11:13:32.117Z,8.70
2023-01-07T11:16:07.553Z,19.37
2023-01-07T11:18:40.789Z,20.15
2023-01-07T11:21:43.483Z,17.60
2023-01-07T11:24:01.363Z,18.42
2023-01-07T11:26:31.355Z,15.58
2023-01-07T11:29:02.097Z,8.33
2023-01-07T11:31:48.746Z,7.72
2023-01-07T11:34:22.444Z,8.95
2023-01-07T11:36:52.101Z,7.70
2023-01-07T11:39:23.012Z,6.17
2023-01-07T11:41:53.929Z,6.87
2023-01-07T11:44:23.461Z,6.58
2023-01-07T11:46:53.502Z,8.45
2023-01-07T11:49:25.122Z,7.50
2023-01-07T11:51:54.781Z,7.37
2023-01-07T11:54:25.815Z,6.87
2023-01-07T11:57:10.541Z,7.20
2023-01-07T11:59:40.092Z,7.10
2023-01-07T12:02:23.336Z,7.53
2023-01-07T12:05:13.302Z,7.85
2023-01-07T12:07:45.800Z,7.12
2023-01-07T12:10:32.072Z,7.37
2023-01-07T12:13:03.348Z,7.25
2023-01-07T12:15:36.766Z,8.78
2023-01-07T12:18:33.652Z,8.10
2023-01-07T12:21:20.227Z,9.60
2023-01-07T12:23:56.750Z,9.45
2023-01-07T12:26:32.004Z,8.93
2023-01-07T12:29:06.371Z,15.93
2023-01-07T12:31:39.962Z,10.80
2023-01-07T12:34:16.297Z,10.30
2023-01-07T12:36:48.399Z,9.53
2023-01-07T12:41:50.346Z,305.30
2023-01-07T12:44:20.815Z,93.58
2023-01-07T12:47:30.956Z,147.85
2023-01-07T12:49:51.067Z,123.40
2023-01-07T12:52:23.139Z,178.23
2023-01-07T12:54:55.001Z,190.70
2023-01-07T12:57:27.951Z,216.48
2023-01-07T13:00:00.455Z,30.90
2023-01-07T13:02:33.012Z,14.58
2023-01-07T13:05:09.416Z,141.80
2023-01-07T13:07:46.018Z,753.25
2023-01-07T13:10:19.282Z,225.35
2023-01-07T13:12:50.402Z,228.00
2023-01-07T13:15:26.067Z,80.00
2023-01-07T13:17:56.142Z,59.85
2023-01-07T13:20:44.141Z,154.35
2023-01-07T13:23:18.852Z,507.45
2023-01-07T13:25:55.170Z,130.70
2023-01-07T13:28:33.579Z,339.63
2023-01-07T13:31:14.340Z,170.20
2023-01-07T13:33:47.330Z,151.30
2023-01-07T13:36:23.471Z,151.57
2023-01-07T13:39:03.791Z,431.63
2023-01-07T13:41:46.204Z,400.38
2023-01-07T13:46:45.337Z,747.55
2023-01-07T13:49:23.980Z,368.37
2023-01-07T13:51:53.820Z,960.77
2023-01-07T13:54:40.961Z,986.12
2023-01-07T13:57:24.860Z,872.65
2023-01-07T13:59:55.777Z,755.87
2023-01-07T14:02:26.028Z,689.70
2023-01-07T14:05:05.086Z,347.35
2023-01-07T14:07:44.253Z,121.35
2023-01-07T14:10:18.938Z,47.27
2023-01-07T14:12:55.258Z,22.65
2023-01-07T14:15:42.388Z,20.02
2023-01-07T14:18:20.637Z,17.62
2023-01-07T14:20:52.542Z,19.77
2023-01-07T14:23:27.772Z,23.15
2023-01-07T14:26:04.836Z,22.42
2023-01-07T14:28:56.264Z,20.15
2023-01-07T14:31:27.231Z,26.12
2023-01-07T14:33:57.857Z,25.65
2023-01-07T14:36:47.473Z,26.75
2023-01-07T14:39:33.055Z,28.23
2023-01-07T14:42:20.919Z,32.80
2023-01-07T14:44:51.006Z,33.85
2023-01-07T14:47:36.573Z,38.23
2023-01-07T14:50:16.678Z,31.52
2023-01-07T14:53:04.834Z,21.77
2023-01-07T14:55:48.521Z,22.48
2023-01-07T14:58:25.975Z,18.90
2023-01-07T15:01:00.957Z,15.72
2023-01-07T15:03:44.809Z,12.93
2023-01-07T15:06:18.077Z,18.07
2023-01-07T15:09:07.582Z,23.22
2023-01-07T15:11:55.234Z,24.18
2023-01-07T15:14:45.241Z,23.42
2023-01-07T15:17:16.070Z,27.35
2023-01-07T15:19:45.563Z,30.00
2023-01-07T15:22:37.987Z,38.48
2023-01-07T15:25:10.779Z,35.73
2023-01-07T15:27:45.290Z,26.75
2023-01-07T15:30:20.764Z,30.50
2023-01-07T15:32:55.151Z,52.30
2023-01-07T15:35:25.953Z,49.30
2023-01-07T15:37:56.568Z,48.42
2023-01-07T15:40:27.248Z,49.25
2023-01-07T15:42:57.827Z,42.53
2023-01-07T15:45:28.020Z,31.02
2023-01-07T15:48:06.495Z,31.90
2023-01-07T15:50:37.191Z,33.50
2023-01-07T15:53:18.655Z,27.82
2023-01-07T15:55:52.229Z,25.60
2023-01-07T15:58:23.003Z,26.87
2023-01-07T16:00:53.216Z,26.57
2023-01-07T16:03:22.459Z,28.02
2023-01-07T16:05:52.653Z,31.37
2023-01-07T16:08:23.850Z,30.15
2023-01-07T16:11:01.699Z,28.47
2023-01-07T16:13:31.913Z,27.15
2023-01-07T16:16:02.951Z,25.20
2023-01-07T16:18:32.538Z,24.23
2023-01-07T16:21:04.065Z,22.30
2023-01-07T16:23:34.284Z,23.42
2023-01-07T16:26:05.100Z,25.95
2023-01-07T16:28:37.380Z,34.40
2023-01-07T16:31:08.372Z,39.70
2023-01-07T16:33:38.270Z,42.13
2023-01-07T16:36:11.444Z,39.48
2023-01-07T16:38:42.525Z,36.73
2023-01-07T16:41:16.139Z,35.07
2023-01-07T16:43:45.536Z,32.10
2023-01-07T16:46:20.926Z,31.80
2023-01-07T16:49:12.041Z,29.13
2023-01-07T16:51:42.836Z,28.40
2023-01-07T16:54:21.977Z,30.83
2023-01-07T16:56:52.782Z,30.00
2023-01-07T16:59:23.838Z,29.93
2023-01-07T17:01:53.495Z,28.63
2023-01-07T17:04:27.213Z,27.00
2023-01-07T17:06:58.135Z,28.80
2023-01-07T17:09:28.659Z,27.43
2023-01-07T17:11:58.222Z,27.17
2023-01-07T17:14:45.205Z,26.63
2023-01-07T17:17:33.189Z,29.60
2023-01-07T17:20:16.811Z,28.95
2023-01-07T17:22:47.254Z,26.30
2023-01-07T17:25:21.070Z,25.70
2023-01-07T17:27:52.876Z,25.33
2023-01-07T17:30:23.173Z,26.95
2023-01-07T17:32:52.625Z,27.00
2023-01-07T17:35:22.633Z,26.00
2023-01-07T17:37:52.626Z,30.27
2023-01-07T17:40:22.009Z,29.97
2023-01-07T17:43:09.655Z,31.57
2023-01-07T17:45:39.021Z,30.63
2023-01-07T17:48:11.882Z,28.07
2023-01-07T17:50:42.000Z,30.23
2023-01-07T17:53:19.015Z,29.53
2023-01-07T17:55:48.467Z,31.13
2023-01-07T17:58:27.258Z,32.20
2023-01-07T18:00:56.936Z,38.88
2023-01-07T18:03:26.623Z,49.37
2023-01-07T18:05:56.631Z,45.87
2023-01-07T18:08:25.843Z,53.87
2023-01-07T18:11:14.187Z,49.27
2023-01-07T18:13:43.524Z,47.30
2023-01-07T18:16:13.707Z,50.57
2023-01-07T18:18:43.532Z,49.03
2023-01-07T18:21:12.943Z,50.00
2023-01-07T18:23:43.411Z,46.83
2023-01-07T18:26:13.405Z,48.23
2023-01-07T18:28:43.151Z,49.60
2023-01-07T18:31:12.998Z,48.60
2023-01-07T18:33:42.404Z,49.00
2023-01-07T18:36:11.872Z,53.90
2023-01-07T18:38:41.275Z,51.67
2023-01-07T18:41:10.534Z,51.17
2023-01-07T18:43:40.502Z,52.87
2023-01-07T18:46:10.057Z,52.15
2023-01-07T18:48:39.512Z,51.70
2023-01-07T18:51:10.071Z,54.80
2023-01-07T18:53:39.574Z,56.60
2023-01-07T18:56:11.156Z,59.37
2023-01-07T18:58:42.132Z,57.00
2023-01-07T19:01:13.357Z,54.50
2023-01-07T19:03:43.032Z,55.80
2023-01-07T19:06:13.042Z,55.10
2023-01-07T19:08:42.527Z,55.37
2023-01-07T19:11:12.975Z,57.17
2023-01-07T19:13:42.469Z,58.40
2023-01-07T19:16:12.695Z,59.70
2023-01-07T19:18:42.613Z,62.70
2023-01-07T19:21:12.469Z,62.03
2023-01-07T19:23:41.927Z,64.83
2023-01-07T19:26:11.594Z,63.03
2023-01-07T19:28:41.024Z,63.43
2023-01-07T19:31:11.079Z,65.30
2023-01-07T19:33:40.459Z,69.30
2023-01-07T19:36:10.798Z,77.05
2023-01-07T19:38:40.495Z,85.20
2023-01-07T19:41:11.209Z,86.43
2023-01-07T19:43:40.458Z,83.40
2023-01-07T19:46:10.654Z,86.65
2023-01-07T19:48:40.106Z,84.20
2023-01-07T19:51:10.324Z,85.40
2023-01-07T19:53:39.862Z,84.35
2023-01-07T19:56:11.114Z,88.90
2023-01-07T19:58:41.267Z,85.03
2023-01-07T20:01:11.980Z,82.53
2023-01-07T20:03:41.470Z,78.55
2023-01-07T20:06:11.984Z,80.25
2023-01-07T20:08:41.602Z,77.07
2023-01-07T20:11:11.256Z,72.40
2023-01-07T20:13:41.100Z,69.75
2023-01-07T20:16:11.502Z,72.30
2023-01-07T20:18:41.998Z,70.03
2023-01-07T20:21:11.856Z,71.97
2023-01-07T20:23:41.363Z,70.85
2023-01-07T20:26:11.564Z,67.33
2023-01-07T20:28:41.028Z,68.15
2023-01-07T20:31:11.937Z,71.70
2023-01-07T20:33:42.707Z,67.63
2023-01-07T20:36:13.376Z,69.43
2023-01-07T20:38:43.292Z,68.47
2023-01-07T20:41:13.836Z,62.60
2023-01-07T20:43:43.330Z,60.20
2023-01-07T20:46:12.663Z,61.40
2023-01-07T20:48:41.938Z,55.40
2023-01-07T20:51:12.949Z,54.23
2023-01-07T20:53:42.709Z,49.17
2023-01-07T20:56:12.139Z,46.90
2023-01-07T20:58:41.445Z,45.80
2023-01-07T21:01:11.941Z,42.35
2023-01-07T21:03:41.468Z,39.10
2023-01-07T21:06:11.815Z,39.10
2023-01-07T21:08:41.747Z,41.85
2023-01-07T21:11:11.575Z,39.35
2023-01-07T21:13:41.169Z,38.05
2023-01-07T21:16:11.105Z,41.80
2023-01-07T21:18:40.887Z,40.05
2023-01-07T21:21:11.205Z,39.35
2023-01-07T21:23:40.774Z,40.10
2023-01-07T21:26:12.267Z,40.00
2023-01-07T21:28:44.332Z,40.77
2023-01-07T21:33:42.846Z,36.80
2023-01-07T21:36:13.806Z,45.00
2023-01-07T21:38:43.412Z,41.57
2023-01-07T21:41:13.652Z,41.70
2023-01-07T21:43:43.233Z,42.65
2023-01-07T21:46:12.899Z,41.35
2023-01-07T21:48:45.741Z,39.73
2023-01-07T21:51:17.100Z,40.70
2023-01-07T21:53:46.458Z,42.60
2023-01-07T21:56:16.953Z,40.45
2023-01-07T21:58:46.416Z,41.00
2023-01-07T22:01:17.819Z,40.80
2023-01-07T22:03:48.352Z,41.67
2023-01-07T22:06:19.343Z,39.15
2023-01-07T22:08:49.068Z,38.10
2023-01-07T22:11:18.341Z,38.00
2023-01-07T22:13:50.702Z,38.85
2023-01-07T22:18:48.393Z,34.87
2023-01-07T22:21:17.878Z,34.40
2023-01-07T22:23:47.522Z,33.70
2023-01-07T22:26:17.704Z,34.40
2023-01-07T22:28:49.050Z,35.35
2023-01-07T22:31:20.085Z,34.20
2023-01-07T22:33:49.541Z,33.65
2023-01-07T22:36:22.066Z,32.55
2023-01-07T22:38:52.514Z,33.70
2023-01-07T22:41:22.508Z,32.95
2023-01-07T22:43:51.907Z,32.40
2023-01-07T22:46:23.224Z,31.70
2023-01-07T22:48:52.956Z,33.00
2023-01-07T22:51:24.730Z,31.35
2023-01-07T22:53:55.174Z,32.33
2023-01-07T22:56:25.328Z,31.10
2023-01-07T22:58:55.179Z,32.45
2023-01-07T23:01:25.148Z,35.20
2023-01-07T23:03:54.696Z,33.75
2023-01-07T23:06:24.207Z,34.25
2023-01-07T23:08:53.479Z,34.25
2023-01-07T23:11:41.121Z,34.65
2023-01-07T23:14:10.618Z,36.55
2023-01-07T23:16:39.983Z,37.13
2023-01-07T23:19:09.271Z,34.80
2023-01-07T23:21:39.996Z,36.75
2023-01-07T23:24:09.830Z,34.33
2023-01-07T23:26:39.494Z,35.80
2023-01-07T23:29:08.865Z,34.10
2023-01-07T23:31:38.216Z,35.65
2023-01-07T23:34:08.152Z,34.10
2023-01-07T23:36:37.612Z,32.93
2023-01-07T23:39:06.985Z,33.15
2023-01-07T23:41:36.520Z,32.40
2023-01-07T23:44:05.852Z,34.67
2023-01-07T23:46:35.422Z,34.45
2023-01-07T23:49:04.826Z,31.90
2023-01-07T23:51:34.392Z,30.45
2023-01-07T23:54:03.786Z,30.90
2023-01-07T23:56:33.117Z,31.75
2023-01-07T23:59:03.285Z,31.50
